Time;durP1;ratioP1;P1;durP2;ratioP2;P2;SDS_P1;SDS_P2;PMS_P1;PMS_P2;Temp;Humidity;BMP_temperature;BMP_pressure;BME280_temperature;BME280_humidity;BME280_pressure;Samples;Min_cycle;Max_cycle;Signal;HPM_P1;HPM_P2
2023/10/30 00:02:17;;;;;;;16.50;8.20;;;;;;;;;;6277768;22;20018;-87
2023/10/30 00:04:47;;;;;;;17.60;8.77;;;;;;;;;;6277176;22;20019;-81
2023/10/30 00:07:19;;;;;;;21.83;9.27;;;;;;;;;;6225498;22;20016;-81
2023/10/30 00:09:50;;;;;;;17.52;8.82;;;;;;;;;;6249927;22;20014;-84
2023/10/30 00:12:22;;;;;;;21.20;8.00;;;;;;;;;;6287610;22;20430;-81
2023/10/30 00:14:52;;;;;;;18.10;7.85;;;;;;;;;;6277289;22;20446;-81
2023/10/30 00:17:22;;;;;;;23.50;7.75;;;;;;;;;;6249344;22;20016;-82
2023/10/30 00:19:52;;;;;;;20.70;7.75;;;;;;;;;;6276951;22;20014;-81
2023/10/30 00:22:22;;;;;;;21.05;8.10;;;;;;;;;;6276692;22;20038;-83
2023/10/30 00:24:52;;;;;;;17.80;7.40;;;;;;;;;;6248630;22;20139;-81
2023/10/30 00:27:22;;;;;;;20.58;7.78;;;;;;;;;;6277791;22;20011;-82
2023/10/30 00:29:53;;;;;;;13.50;7.00;;;;;;;;;;6277649;22;20008;-82
2023/10/30 00:32:24;;;;;;;18.77;7.25;;;;;;;;;;6286983;22;20015;-85
2023/10/30 00:34:54;;;;;;;15.35;7.10;;;;;;;;;;6277135;22;20015;-82
2023/10/30 00:37:25;;;;;;;14.98;7.70;;;;;;;;;;6278176;22;20003;-83
2023/10/30 00:40:06;;;;;;;15.35;7.47;;;;;;;;;;6287008;22;20311;-82
2023/10/30 00:42:37;;;;;;;13.27;6.80;;;;;;;;;;6247662;22;20319;-88
2023/10/30 00:45:09;;;;;;;21.40;7.82;;;;;;;;;;6248828;22;20012;-82
2023/10/30 00:48:05;;;;;;;16.98;7.97;;;;;;;;;;6248813;22;20015;-82
2023/10/30 00:50:49;;;;;;;16.63;7.45;;;;;;;;;;6272539;22;20018;-83
2023/10/30 00:53:19;;;;;;;14.48;7.85;;;;;;;;;;6276186;22;20016;-81
2023/10/30 00:55:50;;;;;;;15.98;7.57;;;;;;;;;;6249677;22;20015;-81
2023/10/30 00:58:21;;;;;;;15.60;7.35;;;;;;;;;;6286929;22;20375;-85
2023/10/30 01:00:51;;;;;;;15.65;7.57;;;;;;;;;;6248107;22;20008;-86
2023/10/30 01:03:23;;;;;;;14.73;7.32;;;;;;;;;;6223477;22;20330;-87
2023/10/30 01:06:01;;;;;;;20.58;7.75;;;;;;;;;;6259933;22;20304;-82
2023/10/30 01:08:32;;;;;;;17.38;7.95;;;;;;;;;;6223702;22;20064;-86
2023/10/30 01:11:02;;;;;;;15.00;8.07;;;;;;;;;;6249928;22;20454;-84
2023/10/30 01:13:41;;;;;;;18.20;7.20;;;;;;;;;;6274413;22;20016;-81
2023/10/30 01:16:26;;;;;;;19.95;7.25;;;;;;;;;;6212145;23;20021;-81
2023/10/30 01:18:56;;;;;;;16.45;7.05;;;;;;;;;;6212007;23;20036;-81
2023/10/30 01:21:26;;;;;;;18.40;7.75;;;;;;;;;;6185651;23;20032;-85
2023/10/30 01:23:59;;;;;;;14.98;7.57;;;;;;;;;;6185708;23;20441;-82
2023/10/30 01:26:30;;;;;;;16.52;7.90;;;;;;;;;;6185827;23;20057;-84
2023/10/30 01:29:00;;;;;;;20.85;7.28;;;;;;;;;;6212239;23;20364;-83
2023/10/30 01:31:31;;;;;;;;;;;;;;;;;;6187006;23;20008;-83
2023/10/30 01:34:02;;;;;;;17.35;7.72;;;;;;;;;;6212247;23;19911;-88
2023/10/30 01:36:33;;;;;;;13.90;7.35;;;;;;;;;;6185667;23;20023;-82
2023/10/30 01:39:03;;;;;;;16.10;7.97;;;;;;;;;;6211986;23;20017;-83
2023/10/30 01:41:33;;;;;;;20.00;8.10;;;;;;;;;;6185692;23;20017;-85
2023/10/30 01:44:03;;;;;;;21.40;8.20;;;;;;;;;;6186071;23;20020;-84
2023/10/30 01:46:34;;;;;;;19.67;8.45;;;;;;;;;;6211441;23;20016;-86
2023/10/30 01:49:10;;;;;;;11.75;7.28;;;;;;;;;;6212281;23;20024;-82
2023/10/30 01:52:00;;;;;;;16.23;7.18;;;;;;;;;;6148571;23;20018;-83
2023/10/30 01:54:30;;;;;;;17.08;7.28;;;;;;;;;;6153310;23;20557;-83
2023/10/30 01:57:00;;;;;;;20.15;7.43;;;;;;;;;;6157846;23;20064;-82
2023/10/30 01:59:31;;;;;;;15.32;7.50;;;;;;;;;;6181736;23;20017;-84
2023/10/30 02:02:02;;;;;;;16.02;6.65;;;;;;;;;;6155893;23;20013;-82
2023/10/30 02:04:33;;;;;;;18.42;7.60;;;;;;;;;;6156013;23;20017;-86
2023/10/30 02:07:04;;;;;;;15.50;7.28;;;;;;;;;;6157302;23;20013;-85
2023/10/30 02:09:35;;;;;;;14.27;6.88;;;;;;;;;;6156958;23;20009;-85
2023/10/30 02:12:06;;;;;;;13.77;6.82;;;;;;;;;;6181878;23;20020;-82
2023/10/30 02:14:37;;;;;;;13.65;6.57;;;;;;;;;;6181799;23;20037;-83
2023/10/30 02:17:07;;;;;;;15.02;6.15;;;;;;;;;;6156394;23;20113;-82
2023/10/30 02:19:38;;;;;;;13.40;5.93;;;;;;;;;;6156508;23;20140;-83
2023/10/30 02:22:08;;;;;;;13.80;5.68;;;;;;;;;;6156924;23;20028;-85
2023/10/30 02:24:38;;;;;;;9.15;4.38;;;;;;;;;;6182283;23;20013;-82
2023/10/30 02:27:09;;;;;;;9.82;4.60;;;;;;;;;;6162878;23;20016;-81
2023/10/30 02:29:40;;;;;;;10.35;4.60;;;;;;;;;;6165326;23;20136;-85
2023/10/30 02:32:11;;;;;;;9.00;4.10;;;;;;;;;;6203035;23;20020;-81
2023/10/30 02:34:40;;;;;;;7.35;3.95;;;;;;;;;;6192984;23;20013;-83
2023/10/30 02:37:10;;;;;;;8.35;4.13;;;;;;;;;;6277659;22;20038;-82
2023/10/30 02:39:40;;;;;;;9.80;4.07;;;;;;;;;;6251164;22;20023;-83
2023/10/30 02:42:12;;;;;;;7.75;4.15;;;;;;;;;;6278305;22;20015;-82
2023/10/30 02:44:43;;;;;;;10.05;4.40;;;;;;;;;;6248110;22;20012;-82
2023/10/30 02:47:14;;;;;;;;;;;;;;;;;;6288297;22;20012;-85
2023/10/30 02:49:45;;;;;;;8.63;4.50;;;;;;;;;;6275746;22;19934;-83
2023/10/30 02:52:15;;;;;;;9.63;4.30;;;;;;;;;;6247867;22;20016;-83
2023/10/30 02:54:46;;;;;;;9.57;4.43;;;;;;;;;;6274856;22;20018;-82
2023/10/30 02:57:16;;;;;;;7.88;4.57;;;;;;;;;;6247724;22;20012;-82
2023/10/30 02:59:46;;;;;;;10.43;4.40;;;;;;;;;;6247764;22;20008;-82
2023/10/30 03:02:17;;;;;;;11.55;4.50;;;;;;;;;;6249258;22;20295;-83
2023/10/30 03:04:47;;;;;;;7.15;3.88;;;;;;;;;;6222539;22;20446;-82
2023/10/30 03:07:18;;;;;;;11.70;4.18;;;;;;;;;;6247835;22;20015;-82
2023/10/30 03:09:50;;;;;;;9.20;5.13;;;;;;;;;;6259639;22;20007;-88
2023/10/30 03:12:20;;;;;;;11.15;4.90;;;;;;;;;;6241724;22;20011;-82
2023/10/30 03:14:53;;;;;;;8.73;4.97;;;;;;;;;;6225159;22;20016;-82
2023/10/30 03:17:23;;;;;;;10.10;4.85;;;;;;;;;;6274221;22;20011;-82
2023/10/30 03:19:54;;;;;;;8.85;4.57;;;;;;;;;;6224107;22;20022;-84
2023/10/30 03:22:24;;;;;;;10.45;4.60;;;;;;;;;;6250632;22;20016;-83
2023/10/30 03:24:54;;;;;;;8.88;4.80;;;;;;;;;;6249388;22;20020;-81
2023/10/30 03:27:25;;;;;;;11.52;5.00;;;;;;;;;;6287183;22;20326;-81
2023/10/30 03:29:56;;;;;;;11.20;4.75;;;;;;;;;;6276943;22;20004;-84
2023/10/30 03:32:26;;;;;;;10.95;5.43;;;;;;;;;;6277173;22;20012;-82
2023/10/30 03:34:56;;;;;;;10.75;5.10;;;;;;;;;;6276965;22;20018;-81
2023/10/30 03:37:26;;;;;;;12.80;5.05;;;;;;;;;;6277256;22;20016;-82
2023/10/30 03:39:57;;;;;;;8.35;4.53;;;;;;;;;;6250718;22;20011;-82
2023/10/30 03:42:28;;;;;;;10.30;5.00;;;;;;;;;;6260632;22;20011;-83
2023/10/30 03:44:58;;;;;;;9.23;5.20;;;;;;;;;;6224007;22;20343;-82
2023/10/30 03:47:28;;;;;;;8.50;4.60;;;;;;;;;;6251719;22;20038;-86
2023/10/30 03:49:58;;;;;;;10.63;5.75;;;;;;;;;;6277523;22;20062;-81
2023/10/30 03:52:28;;;;;;;10.68;4.90;;;;;;;;;;6277150;22;20019;-82
2023/10/30 03:55:03;;;;;;;11.52;5.20;;;;;;;;;;6275437;22;20060;-82
2023/10/30 03:57:34;;;;;;;9.32;5.13;;;;;;;;;;6249489;22;20014;-84
2023/10/30 04:00:07;;;;;;;11.90;5.15;;;;;;;;;;6287640;22;20008;-82
2023/10/30 04:02:40;;;;;;;10.00;5.22;;;;;;;;;;6226327;22;20331;-81
2023/10/30 04:05:11;;;;;;;15.63;5.60;;;;;;;;;;6278349;22;20016;-87
2023/10/30 04:07:41;;;;;;;12.80;5.93;;;;;;;;;;6277393;22;20003;-85
2023/10/30 04:10:11;;;;;;;10.73;5.65;;;;;;;;;;6277235;22;20202;-82
2023/10/30 04:12:41;;;;;;;13.30;4.78;;;;;;;;;;6277048;22;20008;-82
2023/10/30 04:15:11;;;;;;;11.75;4.97;;;;;;;;;;6278052;22;20008;-84
2023/10/30 04:17:41;;;;;;;10.10;4.88;;;;;;;;;;6248970;22;20363;-85
2023/10/30 04:20:12;;;;;;;11.52;5.47;;;;;;;;;;6250618;22;20015;-81
2023/10/30 04:22:42;;;;;;;13.25;5.35;;;;;;;;;;6250980;22;20315;-81
2023/10/30 04:25:12;;;;;;;9.02;4.93;;;;;;;;;;6277081;22;20012;-82
2023/10/30 04:27:42;;;;;;;10.63;4.90;;;;;;;;;;6276982;22;20457;-86
2023/10/30 04:30:12;;;;;;;15.15;5.07;;;;;;;;;;6250379;22;20387;-81
2023/10/30 04:32:42;;;;;;;10.48;5.60;;;;;;;;;;6250491;22;20024;-85
2023/10/30 04:35:12;;;;;;;9.35;4.80;;;;;;;;;;6276828;22;20338;-82
2023/10/30 04:37:42;;;;;;;10.93;5.45;;;;;;;;;;6276794;22;20439;-84
2023/10/30 04:40:12;;;;;;;11.38;5.18;;;;;;;;;;6249497;22;20016;-82
2023/10/30 04:42:42;;;;;;;10.73;5.70;;;;;;;;;;6251297;22;20023;-86
2023/10/30 04:45:12;;;;;;;14.15;5.20;;;;;;;;;;6250523;22;20026;-83
2023/10/30 04:47:44;;;;;;;10.48;4.80;;;;;;;;;;6251198;22;20022;-84
2023/10/30 04:50:14;;;;;;;12.02;4.68;;;;;;;;;;6286964;22;20012;-82
2023/10/30 04:52:45;;;;;;;11.05;5.18;;;;;;;;;;6276588;22;20008;-84
2023/10/30 04:55:14;;;;;;;11.15;5.03;;;;;;;;;;6277708;22;20023;-84
2023/10/30 04:57:45;;;;;;;9.18;4.82;;;;;;;;;;6250281;22;20015;-84
2023/10/30 05:00:15;;;;;;;14.27;5.45;;;;;;;;;;6249836;22;20019;-84
2023/10/30 05:02:49;;;;;;;9.38;5.05;;;;;;;;;;6261054;22;20007;-83
2023/10/30 05:05:19;;;;;;;13.35;5.65;;;;;;;;;;6287276;22;20004;-82
2023/10/30 05:07:49;;;;;;;14.00;5.47;;;;;;;;;;6276611;22;20011;-84
2023/10/30 05:10:19;;;;;;;11.70;5.60;;;;;;;;;;6248826;22;20011;-86
2023/10/30 05:12:49;;;;;;;10.50;5.53;;;;;;;;;;6277132;22;20004;-84
2023/10/30 05:15:21;;;;;;;12.10;5.18;;;;;;;;;;6250085;22;20008;-84
2023/10/30 05:17:51;;;;;;;13.43;5.15;;;;;;;;;;6249800;22;20311;-83
2023/10/30 05:20:21;;;;;;;10.00;4.65;;;;;;;;;;6248348;22;20009;-83
2023/10/30 05:22:51;;;;;;;16.73;5.57;;;;;;;;;;6250056;22;20458;-84
2023/10/30 05:25:22;;;;;;;20.02;4.93;;;;;;;;;;6276779;22;20011;-82
2023/10/30 05:28:07;;;;;;;14.02;5.55;;;;;;;;;;6263703;22;20030;-83
2023/10/30 05:30:37;;;;;;;11.05;5.50;;;;;;;;;;6277521;22;20018;-83
2023/10/30 05:33:08;;;;;;;10.18;5.15;;;;;;;;;;6287191;22;20004;-82
2023/10/30 05:35:38;;;;;;;12.00;4.93;;;;;;;;;;6275843;22;20019;-84
2023/10/30 05:38:08;;;;;;;12.25;5.35;;;;;;;;;;6277031;22;20007;-84
2023/10/30 05:40:43;;;;;;;;;;;;;;;;;;6287302;22;20450;-85
2023/10/30 05:43:13;;;;;;;11.27;5.43;;;;;;;;;;6248407;22;19915;-82
2023/10/30 05:45:44;;;;;;;10.77;4.95;;;;;;;;;;6286755;22;20007;-84
2023/10/30 05:48:16;;;;;;;15.40;5.45;;;;;;;;;;6287621;22;20011;-82
2023/10/30 05:50:46;;;;;;;13.15;4.97;;;;;;;;;;6260243;22;20014;-87
2023/10/30 05:53:16;;;;;;;13.02;5.60;;;;;;;;;;6249964;22;20042;-83
2023/10/30 05:55:46;;;;;;;15.20;5.20;;;;;;;;;;6249727;22;20015;-82
2023/10/30 05:58:19;;;;;;;9.93;4.93;;;;;;;;;;6249406;22;20454;-85
2023/10/30 06:00:50;;;;;;;11.68;5.28;;;;;;;;;;6250186;22;20008;-85
2023/10/30 06:03:26;;;;;;;23.20;6.07;;;;;;;;;;6260762;22;20008;-82
2023/10/30 06:05:59;;;;;;;10.18;4.88;;;;;;;;;;6286999;22;20004;-82
2023/10/30 06:08:39;;;;;;;12.65;5.05;;;;;;;;;;6276219;22;20015;-86
2023/10/30 06:11:10;;;;;;;9.73;5.53;;;;;;;;;;6248706;22;20008;-83
2023/10/30 06:13:41;;;;;;;9.95;5.18;;;;;;;;;;6287096;22;20015;-82
2023/10/30 06:16:19;;;;;;;12.88;5.72;;;;;;;;;;6274198;22;20019;-83
2023/10/30 06:18:49;;;;;;;11.15;5.60;;;;;;;;;;6276502;22;20008;-84
2023/10/30 06:21:20;;;;;;;12.73;5.05;;;;;;;;;;6276957;22;20016;-82
2023/10/30 06:23:50;;;;;;;10.80;5.20;;;;;;;;;;6276325;22;20019;-83
2023/10/30 06:26:20;;;;;;;13.35;4.90;;;;;;;;;;6276433;22;20014;-82
2023/10/30 06:28:50;;;;;;;14.00;5.80;;;;;;;;;;6276190;22;20014;-83
2023/10/30 06:31:21;;;;;;;9.30;4.95;;;;;;;;;;6248630;22;20020;-83
2023/10/30 06:33:51;;;;;;;9.07;4.82;;;;;;;;;;6247995;22;20016;-84
2023/10/30 06:36:23;;;;;;;15.73;5.25;;;;;;;;;;6255731;22;20016;-85
2023/10/30 06:38:57;;;;;;;11.65;4.72;;;;;;;;;;6248176;22;20022;-86
2023/10/30 06:41:27;;;;;;;17.23;5.28;;;;;;;;;;6287271;22;20012;-84
2023/10/30 06:43:57;;;;;;;9.60;4.57;;;;;;;;;;6274484;22;20011;-84
2023/10/30 06:46:28;;;;;;;9.52;4.90;;;;;;;;;;6261008;22;20319;-82
2023/10/30 06:48:58;;;;;;;10.75;4.60;;;;;;;;;;6278701;22;20014;-81
2023/10/30 06:51:28;;;;;;;12.32;4.93;;;;;;;;;;6278467;22;20019;-82
2023/10/30 06:53:58;;;;;;;12.70;4.63;;;;;;;;;;6277851;22;20019;-84
2023/10/30 06:56:32;;;;;;;10.45;5.28;;;;;;;;;;6289052;22;20003;-86
2023/10/30 06:59:02;;;;;;;11.30;4.63;;;;;;;;;;6251801;22;20121;-87
2023/10/30 07:01:43;;;;;;;13.05;5.60;;;;;;;;;;6250826;22;20462;-84
2023/10/30 07:04:17;;;;;;;12.73;4.78;;;;;;;;;;6288382;22;20012;-83
2023/10/30 07:06:47;;;;;;;10.68;5.30;;;;;;;;;;6288958;22;20010;-84
2023/10/30 07:09:18;;;;;;;12.90;5.63;;;;;;;;;;6288185;22;20008;-85
2023/10/30 07:11:49;;;;;;;17.08;5.38;;;;;;;;;;6252221;22;20012;-83
2023/10/30 07:14:20;;;;;;;11.02;5.20;;;;;;;;;;6250385;22;20012;-83
2023/10/30 07:16:50;;;;;;;12.50;5.18;;;;;;;;;;6277813;22;20015;-82
2023/10/30 07:19:32;;;;;;;11.98;4.88;;;;;;;;;;6250175;22;20007;-83
2023/10/30 07:22:04;;;;;;;10.13;4.68;;;;;;;;;;6251625;22;20008;-83
2023/10/30 07:24:36;;;;;;;11.38;4.78;;;;;;;;;;6287891;22;20015;-83
2023/10/30 07:27:06;;;;;;;13.38;5.53;;;;;;;;;;6278295;22;20015;-83
2023/10/30 07:29:38;;;;;;;10.50;4.88;;;;;;;;;;6288977;22;20004;-83
2023/10/30 07:32:08;;;;;;;13.13;5.93;;;;;;;;;;6278138;22;20018;-82
2023/10/30 07:34:40;;;;;;;11.82;5.20;;;;;;;;;;6251791;22;20015;-86
2023/10/30 07:37:11;;;;;;;10.57;5.32;;;;;;;;;;6280218;22;20011;-82
2023/10/30 07:39:40;;;;;;;12.60;5.65;;;;;;;;;;6278584;22;20442;-83
2023/10/30 07:42:10;;;;;;;9.82;5.22;;;;;;;;;;6277926;22;20011;-85
2023/10/30 07:44:41;;;;;;;13.13;4.85;;;;;;;;;;6277137;22;20012;-83
2023/10/30 07:47:12;;;;;;;12.75;5.07;;;;;;;;;;6250655;22;20007;-84
2023/10/30 07:49:42;;;;;;;14.30;5.70;;;;;;;;;;6250624;22;20015;-84
2023/10/30 07:52:13;;;;;;;12.80;5.60;;;;;;;;;;6277373;22;20011;-83
2023/10/30 07:54:44;;;;;;;10.10;5.72;;;;;;;;;;6262166;22;20015;-86
2023/10/30 07:57:14;;;;;;;12.13;5.55;;;;;;;;;;6250889;22;20022;-84
2023/10/30 07:59:44;;;;;;;9.48;5.38;;;;;;;;;;6250302;22;20480;-82
2023/10/30 08:02:14;;;;;;;12.05;5.43;;;;;;;;;;6277900;22;20022;-84
2023/10/30 08:04:44;;;;;;;10.15;5.85;;;;;;;;;;6225667;22;20019;-83
2023/10/30 08:07:14;;;;;;;12.00;5.40;;;;;;;;;;6225032;22;20406;-83
2023/10/30 08:09:45;;;;;;;11.00;4.55;;;;;;;;;;6249636;22;20023;-83
2023/10/30 08:12:16;;;;;;;12.05;5.32;;;;;;;;;;6251044;22;20012;-84
2023/10/30 08:14:46;;;;;;;16.45;6.30;;;;;;;;;;6249732;22;20019;-83
2023/10/30 08:17:17;;;;;;;11.90;5.93;;;;;;;;;;6261346;22;20019;-82
2023/10/30 08:20:09;;;;;;;14.40;6.13;;;;;;;;;;6224213;22;20015;-81
2023/10/30 08:22:56;;;;;;;13.32;4.78;;;;;;;;;;6256961;22;20011;-82
2023/10/30 08:25:27;;;;;;;10.65;4.75;;;;;;;;;;6277040;22;20414;-83
2023/10/30 08:27:58;;;;;;;14.88;5.57;;;;;;;;;;6277595;22;20019;-82
2023/10/30 08:30:28;;;;;;;10.45;5.65;;;;;;;;;;6287886;22;20019;-83
2023/10/30 08:33:00;;;;;;;10.27;5.45;;;;;;;;;;6249307;22;20011;-81
2023/10/30 08:35:32;;;;;;;11.77;5.65;;;;;;;;;;6286677;22;20003;-82
2023/10/30 08:38:03;;;;;;;14.07;5.93;;;;;;;;;;6249376;22;20007;-84
2023/10/30 08:40:34;;;;;;;9.90;5.32;;;;;;;;;;6277427;22;20004;-82
2023/10/30 08:43:04;;;;;;;11.95;5.53;;;;;;;;;;6224439;22;20031;-81
2023/10/30 08:45:36;;;;;;;12.85;5.75;;;;;;;;;;6276063;22;20022;-83
2023/10/30 08:48:07;;;;;;;11.18;5.97;;;;;;;;;;6248892;22;20338;-80
2023/10/30 08:50:47;;;;;;;10.73;5.40;;;;;;;;;;6226870;22;20318;-83
2023/10/30 08:53:18;;;;;;;11.27;5.40;;;;;;;;;;6250175;22;20042;-86
2023/10/30 08:55:48;;;;;;;12.38;5.88;;;;;;;;;;6260426;22;20022;-84
2023/10/30 08:58:18;;;;;;;10.60;5.55;;;;;;;;;;6248385;22;20012;-82
2023/10/30 09:00:48;;;;;;;11.13;5.85;;;;;;;;;;6275721;22;20011;-82
2023/10/30 09:03:19;;;;;;;13.10;6.05;;;;;;;;;;6284184;22;20315;-81
2023/10/30 09:05:49;;;;;;;11.38;6.03;;;;;;;;;;6275646;22;20015;-81
2023/10/30 09:08:20;;;;;;;10.95;6.20;;;;;;;;;;6275830;22;20004;-81
2023/10/30 09:10:53;;;;;;;12.27;6.68;;;;;;;;;;6259971;22;20343;-82
2023/10/30 09:13:23;;;;;;;14.93;6.05;;;;;;;;;;6276219;22;20011;-82
2023/10/30 09:15:53;;;;;;;12.32;5.70;;;;;;;;;;6275840;22;20012;-83
2023/10/30 09:18:23;;;;;;;15.70;5.78;;;;;;;;;;6249698;22;20016;-82
2023/10/30 09:20:54;;;;;;;17.30;6.75;;;;;;;;;;6276263;22;20019;-83
2023/10/30 09:23:24;;;;;;;16.05;6.63;;;;;;;;;;6275894;22;20308;-82
2023/10/30 09:25:53;;;;;;;12.98;6.80;;;;;;;;;;6275772;22;20018;-84
2023/10/30 09:28:23;;;;;;;16.20;6.22;;;;;;;;;;6273740;22;20019;-86
2023/10/30 09:30:53;;;;;;;15.50;6.63;;;;;;;;;;6276030;22;20010;-83
2023/10/30 09:33:25;;;;;;;14.70;6.75;;;;;;;;;;6248175;22;20016;-83
2023/10/30 09:35:56;;;;;;;11.02;6.60;;;;;;;;;;6275820;22;20004;-84
2023/10/30 09:38:26;;;;;;;11.30;6.05;;;;;;;;;;6285982;22;20008;-80
2023/10/30 09:41:01;;;;;;;14.02;6.53;;;;;;;;;;6275819;22;20023;-82
2023/10/30 09:43:33;;;;;;;20.67;6.47;;;;;;;;;;6285351;22;20008;-81
2023/10/30 09:46:07;;;;;;;11.23;6.13;;;;;;;;;;6285692;22;20288;-84
2023/10/30 09:48:38;;;;;;;13.80;6.35;;;;;;;;;;6259614;22;20015;-84
2023/10/30 09:51:10;;;;;;;13.02;6.18;;;;;;;;;;6285892;22;20018;-82
2023/10/30 09:53:43;;;;;;;10.75;5.95;;;;;;;;;;6249408;22;20012;-83
2023/10/30 09:56:16;;;;;;;10.88;5.55;;;;;;;;;;6282423;22;20011;-82
2023/10/30 09:58:48;;;;;;;13.20;6.07;;;;;;;;;;6257747;22;20011;-85
2023/10/30 10:01:20;;;;;;;25.45;15.43;;;;;;;;;;6295189;22;20003;-81
2023/10/30 10:03:50;;;;;;;;;;;;;;;;;;6291855;22;20008;-84
2023/10/30 10:06:21;;;;;;;25.40;14.75;;;;;;;;;;6277246;22;19911;-82
2023/10/30 10:08:50;;;;;;;44.72;27.05;;;;;;;;;;6277283;22;20011;-82
2023/10/30 10:11:24;;;;;;;30.63;19.10;;;;;;;;;;6276143;22;20016;-84
2023/10/30 10:13:56;;;;;;;19.38;11.05;;;;;;;;;;6255268;22;20012;-82
2023/10/30 10:16:36;;;;;;;23.38;12.45;;;;;;;;;;6262769;22;20019;-82
2023/10/30 10:19:20;;;;;;;18.20;11.57;;;;;;;;;;6259992;22;20004;-82
2023/10/30 10:21:51;;;;;;;13.60;7.95;;;;;;;;;;6260109;22;20016;-84
2023/10/30 10:24:30;;;;;;;12.85;6.95;;;;;;;;;;6249295;22;20296;-82
2023/10/30 10:27:06;;;;;;;;;;;;;;;;;;6287734;22;20035;-83
2023/10/30 10:29:36;;;;;;;11.75;6.38;;;;;;;;;;6288055;22;19911;-83
2023/10/30 10:32:07;;;;;;;15.95;7.05;;;;;;;;;;6277486;22;20007;-84
2023/10/30 10:34:50;;;;;;;11.65;6.10;;;;;;;;;;6250132;22;20015;-86
2023/10/30 10:37:21;;;;;;;12.98;6.40;;;;;;;;;;6255130;22;20004;-85
2023/10/30 10:39:53;;;;;;;15.52;5.97;;;;;;;;;;6261952;22;20414;-85
2023/10/30 10:42:25;;;;;;;13.48;6.70;;;;;;;;;;6288394;22;20024;-87
2023/10/30 10:44:57;;;;;;;14.48;6.50;;;;;;;;;;6250024;22;20011;-85
2023/10/30 10:47:28;;;;;;;11.77;6.50;;;;;;;;;;6249185;22;20038;-83
2023/10/30 10:49:58;;;;;;;16.08;5.95;;;;;;;;;;6250891;22;20019;-84
2023/10/30 10:52:32;;;;;;;16.63;6.50;;;;;;;;;;6250467;22;20436;-86
2023/10/30 10:55:42;;;;;;;13.15;6.38;;;;;;;;;;6250174;22;20020;-85
2023/10/30 10:58:58;;;;;;;12.65;6.63;;;;;;;;;;6211151;23;20023;-84
2023/10/30 11:01:36;;;;;;;15.95;6.65;;;;;;;;;;6221426;23;20470;-84
2023/10/30 11:04:11;;;;;;;15.10;7.65;;;;;;;;;;6221806;23;20439;-83
2023/10/30 11:06:49;;;;;;;13.50;7.00;;;;;;;;;;6223811;23;20013;-83
2023/10/30 11:09:35;;;;;;;15.02;7.65;;;;;;;;;;6200593;23;20352;-84
2023/10/30 11:13:04;;;;;;;15.98;8.63;;;;;;;;;;6117284;23;20015;-83
2023/10/30 11:16:14;;;;;;;7.15;3.63;;;;;;;;;;6031751;23;20017;-83
2023/10/30 11:18:44;;;;;;;5.78;2.35;;;;;;;;;;6095247;23;20390;-83
2023/10/30 11:21:16;;;;;;;5.53;1.63;;;;;;;;;;6095217;23;20037;-82
2023/10/30 11:23:49;;;;;;;2.72;1.50;;;;;;;;;;6094367;23;20434;-81
2023/10/30 11:26:36;;;;;;;3.13;0.95;;;;;;;;;;6081617;23;20019;-81
2023/10/30 11:29:17;;;;;;;4.90;1.08;;;;;;;;;;6119822;23;20016;-82
2023/10/30 11:31:55;;;;;;;4.93;0.80;;;;;;;;;;6129118;23;20017;-80
2023/10/30 11:34:34;;;;;;;2.92;0.68;;;;;;;;;;6162700;23;20013;-81
2023/10/30 11:37:15;;;;;;;2.90;0.80;;;;;;;;;;6156338;23;20024;-81
2023/10/30 11:39:49;;;;;;;1.92;0.60;;;;;;;;;;6153877;23;20530;-82
2023/10/30 11:42:25;;;;;;;2.70;0.60;;;;;;;;;;6161609;23;20009;-80
2023/10/30 11:45:28;;;;;;;1.42;0.30;;;;;;;;;;6153693;23;20009;-82
2023/10/30 11:48:01;;;;;;;2.67;0.45;;;;;;;;;;6152330;23;20024;-82
2023/10/30 11:50:36;;;;;;;1.85;0.50;;;;;;;;;;6269413;22;20008;-82
2023/10/30 11:53:12;;;;;;;1.60;0.60;;;;;;;;;;6287130;22;20027;-82
2023/10/30 11:55:42;;;;;;;15.45;4.63;;;;;;;;;;6287882;22;20007;-82
2023/10/30 11:58:12;;;;;;;3.53;0.88;;;;;;;;;;6285586;22;20014;-80
2023/10/30 12:00:47;;;;;;;2.30;0.63;;;;;;;;;;6249968;22;20007;-82
2023/10/30 12:03:18;;;;;;;3.97;1.10;;;;;;;;;;6286799;22;20008;-82
2023/10/30 12:05:48;;;;;;;4.38;1.00;;;;;;;;;;6276895;22;20004;-79
2023/10/30 12:08:18;;;;;;;7.25;0.60;;;;;;;;;;6276462;22;20012;-81
2023/10/30 12:10:49;;;;;;;3.00;0.80;;;;;;;;;;6274512;22;20012;-80
2023/10/30 12:13:19;;;;;;;4.93;0.85;;;;;;;;;;6276040;22;20003;-80
2023/10/30 12:15:49;;;;;;;3.92;0.70;;;;;;;;;;6276103;22;20018;-80
2023/10/30 12:18:23;;;;;;;1.83;0.80;;;;;;;;;;6286410;22;20012;-83
2023/10/30 12:20:55;;;;;;;2.95;0.77;;;;;;;;;;6286180;22;20004;-81
2023/10/30 12:23:26;;;;;;;2.95;0.77;;;;;;;;;;6286557;22;20019;-81
2023/10/30 12:26:07;;;;;;;1.67;0.85;;;;;;;;;;6248894;22;20019;-82
2023/10/30 12:28:37;;;;;;;2.90;1.00;;;;;;;;;;6286486;22;20030;-81
2023/10/30 12:31:19;;;;;;;;;;;;;;;;;;6287374;22;20454;-80
2023/10/30 12:34:10;;;;;;;3.08;1.00;;;;;;;;;;6286203;22;19911;-80
2023/10/30 12:36:41;;;;;;;2.85;1.02;;;;;;;;;;6276438;22;20296;-81
2023/10/30 12:39:21;;;;;;;3.42;1.17;;;;;;;;;;6275552;22;20008;-81
2023/10/30 12:41:57;;;;;;;2.88;1.00;;;;;;;;;;6272980;22;20012;-82
2023/10/30 12:44:28;;;;;;;3.90;1.00;;;;;;;;;;6248170;22;20008;-80
2023/10/30 12:46:58;;;;;;;2.80;0.90;;;;;;;;;;6275809;22;20012;-82
2023/10/30 12:49:28;;;;;;;2.35;0.90;;;;;;;;;;6248376;22;20014;-82
2023/10/30 12:51:58;;;;;;;2.88;1.17;;;;;;;;;;6247988;22;20022;-82
2023/10/30 12:54:28;;;;;;;2.10;0.90;;;;;;;;;;6274217;22;20403;-83
2023/10/30 12:56:59;;;;;;;5.45;1.00;;;;;;;;;;6285701;22;20011;-81
2023/10/30 12:59:30;;;;;;;2.78;0.98;;;;;;;;;;6273917;22;20011;-82
2023/10/30 13:01:59;;;;;;;3.05;0.98;;;;;;;;;;6275230;22;20473;-82
2023/10/30 13:04:30;;;;;;;2.50;1.25;;;;;;;;;;6249149;22;20012;-83
2023/10/30 13:07:02;;;;;;;;;;;;;;;;;;6248025;22;20394;-81
2023/10/30 13:09:32;;;;;;;8.73;4.07;;;;;;;;;;6275361;22;20333;-80
2023/10/30 13:12:03;;;;;;;6.15;3.03;;;;;;;;;;6276210;22;20442;-80
2023/10/30 13:14:34;;;;;;;7.55;5.13;;;;;;;;;;6286301;22;20012;-81
2023/10/30 13:17:04;;;;;;;5.90;2.55;;;;;;;;;;6275176;22;20461;-81
2023/10/30 13:19:35;;;;;;;2.67;1.25;;;;;;;;;;6286400;22;20015;-82
2023/10/30 13:22:06;;;;;;;2.90;1.10;;;;;;;;;;6286660;22;20007;-81
2023/10/30 13:24:36;;;;;;;64.18;50.72;;;;;;;;;;6276278;22;20008;-81
2023/10/30 13:27:06;;;;;;;4.70;2.55;;;;;;;;;;6275858;22;20019;-81
2023/10/30 13:29:35;;;;;;;4.22;1.70;;;;;;;;;;6275727;22;20022;-81
2023/10/30 13:32:06;;;;;;;2.42;1.02;;;;;;;;;;6275852;22;20011;-81
2023/10/30 13:34:36;;;;;;;4.00;1.08;;;;;;;;;;6275937;22;20327;-81
2023/10/30 13:37:08;;;;;;;2.30;0.90;;;;;;;;;;6277754;22;20015;-82
2023/10/30 13:39:38;;;;;;;2.40;1.20;;;;;;;;;;6285361;22;20302;-81
2023/10/30 13:42:09;;;;;;;3.17;0.80;;;;;;;;;;6273904;22;20605;-80
2023/10/30 13:44:39;;;;;;;3.50;1.27;;;;;;;;;;6285115;22;20011;-81
2023/10/30 13:47:09;;;;;;;3.60;1.00;;;;;;;;;;6274620;22;20012;-81
2023/10/30 13:49:39;;;;;;;2.83;1.30;;;;;;;;;;6246858;22;20037;-81
2023/10/30 13:52:09;;;;;;;3.20;1.10;;;;;;;;;;6274348;22;20011;-81
2023/10/30 13:54:39;;;;;;;2.15;0.98;;;;;;;;;;6274424;22;20095;-81
2023/10/30 13:57:11;;;;;;;2.67;0.90;;;;;;;;;;6284756;22;20007;-80
2023/10/30 13:59:41;;;;;;;0.98;0.57;;;;;;;;;;6275032;22;20461;-80
2023/10/30 14:02:11;;;;;;;2.15;0.93;;;;;;;;;;6248503;22;20015;-80
2023/10/30 14:04:43;;;;;;;1.75;0.70;;;;;;;;;;6248371;22;20016;-80
2023/10/30 14:07:14;;;;;;;3.67;0.80;;;;;;;;;;6284682;22;20469;-80
2023/10/30 14:09:48;;;;;;;3.67;1.10;;;;;;;;;;6284790;22;20026;-80
2023/10/30 14:12:18;;;;;;;3.53;1.13;;;;;;;;;;6247825;22;20026;-80
2023/10/30 14:14:48;;;;;;;2.03;0.93;;;;;;;;;;6274903;22;20008;-81
2023/10/30 14:17:18;;;;;;;3.10;1.08;;;;;;;;;;6274841;22;20434;-81
2023/10/30 14:19:48;;;;;;;2.55;1.17;;;;;;;;;;6275072;22;20011;-82
2023/10/30 14:22:20;;;;;;;2.53;0.93;;;;;;;;;;6275665;22;20011;-81
2023/10/30 14:24:50;;;;;;;2.40;0.90;;;;;;;;;;6274830;22;20031;-81
2023/10/30 14:27:20;;;;;;;3.10;0.93;;;;;;;;;;6275270;22;20450;-82
2023/10/30 14:29:52;;;;;;;2.05;0.90;;;;;;;;;;6245811;22;20354;-80
2023/10/30 14:32:22;;;;;;;4.45;1.13;;;;;;;;;;6272594;22;20016;-80
2023/10/30 14:34:52;;;;;;;2.78;1.10;;;;;;;;;;6247356;22;20016;-81
2023/10/30 14:37:22;;;;;;;4.55;1.00;;;;;;;;;;6246930;22;20027;-81
2023/10/30 14:39:52;;;;;;;2.63;0.90;;;;;;;;;;6274844;22;20015;-83
2023/10/30 14:42:22;;;;;;;1.00;0.50;;;;;;;;;;6274773;22;20014;-83
2023/10/30 14:44:53;;;;;;;1.77;0.80;;;;;;;;;;6274249;22;20339;-84
2023/10/30 14:47:23;;;;;;;2.45;1.20;;;;;;;;;;6247333;22;20008;-83
2023/10/30 14:49:55;;;;;;;2.22;0.65;;;;;;;;;;6248153;22;20011;-83
2023/10/30 14:52:25;;;;;;;2.40;0.80;;;;;;;;;;6285572;22;20008;-83
2023/10/30 14:54:56;;;;;;;4.22;2.25;;;;;;;;;;6246374;22;20327;-83
2023/10/30 14:57:26;;;;;;;5.05;1.30;;;;;;;;;;6247287;22;20097;-82
2023/10/30 14:59:56;;;;;;;3.05;0.90;;;;;;;;;;6248139;22;20024;-82
2023/10/30 15:02:27;;;;;;;1.58;0.65;;;;;;;;;;6274133;22;20342;-80
2023/10/30 15:05:00;;;;;;;4.20;1.42;;;;;;;;;;6284261;22;20015;-81
2023/10/30 15:07:30;;;;;;;;;;;;;;;;;;6249424;22;20019;-82